Time;durP1;ratioP1;P1;durP2;ratioP2;P2;SDS_P1;SDS_P2;PMS_P1;PMS_P2;Temp;Humidity;BMP_temperature;BMP_pressure;BME280_temperature;BME280_humidity;BME280_pressure;Samples;Min_cycle;Max_cycle;Signal;HPM_P1;HPM_P2
2022/04/04 00:00:18;;;;;;;283.20;257.38;;;;;;;17.17;26.43;93842.06;5021891;28;20069;-70
2022/04/04 00:03:02;;;;;;;283.15;257.38;;;;;;;17.17;26.28;93835.91;5022591;28;20056;-70
2022/04/04 00:05:28;;;;;;;283.92;258.20;;;;;;;17.18;26.33;93834.72;5023775;28;20044;-70
2022/04/04 00:07:54;;;;;;;283.15;258.05;;;;;;;17.16;26.36;93829.75;5020154;28;20046;-70
2022/04/04 00:10:19;;;;;;;283.70;258.27;;;;;;;17.16;26.42;93831.72;5031153;28;20121;-70
2022/04/04 00:12:45;;;;;;;281.63;255.82;;;;;;;17.15;26.21;93836.34;5020211;28;20037;-70
2022/04/04 00:15:10;;;;;;;293.85;266.73;;;;;;;17.15;26.26;93825.56;5022200;28;20044;-70
2022/04/04 00:17:36;;;;;;;274.70;249.63;;;;;;;17.15;26.34;93817.44;5020805;28;20061;-70
2022/04/04 00:20:03;;;;;;;280.92;255.35;;;;;;;17.15;26.31;93822.84;5019647;28;20071;-70
2022/04/04 00:22:28;;;;;;;287.02;261.00;;;;;;;17.14;26.38;93818.66;5018434;28;20045;-70
2022/04/04 00:24:55;;;;;;;306.27;278.08;;;;;;;17.15;26.49;93814.00;5016822;28;20048;-70
2022/04/04 00:27:20;;;;;;;279.55;254.27;;;;;;;17.14;26.38;93813.25;5023033;28;20183;-70
2022/04/04 00:29:46;;;;;;;274.70;249.90;;;;;;;17.15;26.42;93805.88;5024692;28;20064;-70
2022/04/04 00:32:12;;;;;;;283.50;257.55;;;;;;;17.14;26.42;93807.84;5023657;28;20064;-70
2022/04/04 00:34:37;;;;;;;277.50;252.52;;;;;;;17.13;26.45;93801.69;5022759;28;20064;-71
2022/04/04 00:37:03;;;;;;;289.58;262.98;;;;;;;17.13;26.35;93804.38;5019877;28;20064;-70
2022/04/04 00:39:28;;;;;;;274.67;249.40;;;;;;;17.13;26.48;93801.69;5021371;28;20565;-70
2022/04/04 00:41:54;;;;;;;299.83;272.17;;;;;;;17.13;26.33;93804.38;5020359;28;20144;-70
2022/04/04 00:44:20;;;;;;;285.55;259.83;;;;;;;17.10;26.51;93797.19;5023064;28;20045;-70
2022/04/04 00:46:45;;;;;;;285.75;260.23;;;;;;;17.10;26.32;93793.72;5020852;28;20069;-70
2022/04/04 00:49:11;;;;;;;279.92;254.27;;;;;;;17.09;26.38;93789.53;5022264;28;20068;-70
2022/04/04 00:51:37;;;;;;;281.05;255.85;;;;;;;17.08;26.19;93796.88;5013816;28;20391;-70
2022/04/04 00:54:04;;;;;;;277.90;252.90;;;;;;;17.07;26.45;93787.28;5024814;28;20080;-70
2022/04/04 00:56:33;;;;;;;286.30;260.58;;;;;;;17.06;26.51;93791.19;5019274;28;20808;-70
2022/04/04 00:59:00;;;;;;;286.63;260.88;;;;;;;17.06;26.33;93788.47;5018933;28;20053;-70
2022/04/04 01:01:26;;;;;;;288.35;262.65;;;;;;;17.05;26.44;93784.28;5018954;28;20037;-70
2022/04/04 01:03:52;;;;;;;285.02;259.27;;;;;;;17.04;26.45;93785.47;5022251;28;20049;-70
2022/04/04 01:06:18;;;;;;;298.88;272.25;;;;;;;17.04;26.55;93787.44;5021294;28;20059;-71
2022/04/04 01:08:44;;;;;;;290.98;264.58;;;;;;;17.03;26.39;93783.97;5024766;28;20056;-70
2022/04/04 01:11:11;;;;;;;284.80;259.00;;;;;;;17.03;26.46;93789.38;5022638;28;20532;-70
2022/04/04 01:13:37;;;;;;;282.70;256.90;;;;;;;17.02;26.42;93779.03;5019612;28;20038;-71
2022/04/04 01:16:03;;;;;;;297.45;270.17;;;;;;;17.01;26.52;93785.63;5016124;28;20161;-71
2022/04/04 01:18:29;;;;;;;279.38;254.05;;;;;;;16.99;26.55;93780.69;5021968;28;20178;-71
2022/04/04 01:20:55;;;;;;;290.80;264.77;;;;;;;16.97;26.66;93780.38;5022810;28;20518;-71
2022/04/04 01:23:24;;;;;;;293.33;267.05;;;;;;;16.97;26.61;93774.97;5021640;28;20060;-71
2022/04/04 01:25:51;;;;;;;291.58;264.40;;;;;;;16.98;26.50;93778.44;5017496;28;20080;-71
2022/04/04 01:28:17;;;;;;;291.13;264.88;;;;;;;16.97;26.44;93774.97;5022661;28;20073;-71
2022/04/04 01:30:47;;;;;;;290.25;264.20;;;;;;;16.97;26.51;93774.97;5015614;28;20037;-71
2022/04/04 01:33:13;;;;;;;290.40;263.95;;;;;;;16.97;26.57;93768.84;5021823;28;20041;-70
2022/04/04 01:35:39;;;;;;;300.70;273.33;;;;;;;16.97;26.46;93769.59;5019657;28;20437;-71
2022/04/04 01:38:04;;;;;;;288.27;262.33;;;;;;;16.97;26.56;93768.84;5021653;28;20058;-71
2022/04/04 01:40:30;;;;;;;291.67;265.00;;;;;;;16.96;26.55;93770.03;5014766;28;20068;-71
2022/04/04 01:42:56;;;;;;;283.10;257.10;;;;;;;16.95;26.32;93763.13;5023134;28;20594;-70
2022/04/04 01:48:11;;;;;;;288.08;262.05;;;;;;;16.95;26.61;93763.88;5022788;28;20045;-71
2022/04/04 01:50:37;;;;;;;286.92;261.05;;;;;;;16.95;26.50;93761.19;5022232;28;20068;-71
2022/04/04 01:55:48;;;;;;;298.85;271.58;;;;;;;16.96;26.43;93753.81;5015494;28;20084;-71
2022/04/04 01:58:13;;;;;;;296.50;269.73;;;;;;;16.96;26.55;93743.78;5024073;28;20046;-71
2022/04/04 02:00:39;;;;;;;291.63;265.42;;;;;;;16.96;26.55;93749.16;5026126;28;20455;-71
2022/04/04 02:03:05;;;;;;;293.73;267.55;;;;;;;16.98;26.33;93743.31;5027196;28;20045;-71
2022/04/04 02:05:30;;;;;;;286.52;260.85;;;;;;;16.98;26.40;93746.03;5025309;28;20041;-71
2022/04/04 02:07:56;;;;;;;306.65;278.52;;;;;;;16.99;26.49;93750.22;5021112;28;20095;-71
2022/04/04 02:10:22;;;;;;;288.95;262.90;;;;;;;16.98;26.36;93752.16;5026733;28;20708;-71
2022/04/04 02:12:48;;;;;;;300.08;272.98;;;;;;;16.97;26.47;93747.22;5020690;28;20100;-71
2022/04/04 02:15:13;;;;;;;286.95;261.15;;;;;;;16.95;26.28;93749.63;5022134;28;20057;-71
2022/04/04 02:17:39;;;;;;;295.20;268.20;;;;;;;16.95;26.51;93742.28;5024093;28;20107;-71
2022/04/04 02:20:08;;;;;;;297.02;269.95;;;;;;;16.94;26.35;93738.06;5017479;28;20037;-71
2022/04/04 02:22:34;;;;;;;291.88;265.77;;;;;;;16.96;26.41;93732.22;5019155;28;20048;-71
2022/04/04 02:25:00;;;;;;;297.45;270.48;;;;;;;16.95;26.34;93728.00;5032043;28;20465;-71
2022/04/04 02:27:25;;;;;;;292.83;266.42;;;;;;;16.95;26.39;93728.75;5024116;28;20064;-71
2022/04/04 02:29:52;;;;;;;289.63;263.70;;;;;;;16.95;26.39;93726.06;5023700;28;20407;-71
2022/04/04 02:32:19;;;;;;;284.40;258.35;;;;;;;16.97;26.41;93728.31;5029199;28;20042;-71
2022/04/04 02:34:47;;;;;;;289.00;263.00;;;;;;;16.96;26.45;93730.25;5024273;28;20060;-71
2022/04/04 02:37:14;;;;;;;285.45;259.23;;;;;;;16.96;26.16;93729.50;5026351;28;20050;-71
2022/04/04 02:39:40;;;;;;;287.25;261.35;;;;;;;16.97;26.24;93731.00;5024935;28;20818;-71
2022/04/04 02:42:06;;;;;;;286.92;260.80;;;;;;;16.95;26.30;93723.38;5027473;28;20044;-71
2022/04/04 02:44:32;;;;;;;290.45;264.05;;;;;;;16.96;26.32;93729.50;5024250;28;20057;-71
2022/04/04 02:46:57;;;;;;;297.38;270.20;;;;;;;16.95;26.69;93723.38;5021488;28;20620;-71
2022/04/04 02:49:24;;;;;;;295.50;269.17;;;;;;;16.94;26.36;93721.88;5024765;28;20120;-71
2022/04/04 02:51:50;;;;;;;289.23;263.10;;;;;;;16.94;26.35;93727.25;5031317;28;20143;-71
2022/04/04 02:54:16;;;;;;;291.08;264.67;;;;;;;16.94;26.26;93729.97;5023200;28;20037;-70
2022/04/04 02:56:41;;;;;;;299.70;272.60;;;;;;;16.95;26.29;93722.63;5027421;28;20099;-71
2022/04/04 02:59:08;;;;;;;292.55;266.27;;;;;;;16.95;26.39;93723.38;5026177;28;20047;-71
2022/04/04 03:01:35;;;;;;;294.13;267.73;;;;;;;16.95;26.19;93717.22;5023837;28;20064;-71
2022/04/04 03:04:02;;;;;;;289.65;263.42;;;;;;;16.95;26.23;93709.84;5025363;28;20050;-71
2022/04/04 03:06:28;;;;;;;301.10;273.85;;;;;;;16.96;26.15;93718.72;5022568;28;20487;-70
2022/04/04 03:08:55;;;;;;;291.30;265.25;;;;;;;16.95;26.13;93715.25;5026677;28;20049;-71
2022/04/04 03:11:20;;;;;;;294.23;267.60;;;;;;;16.94;26.42;93716.47;5023684;28;20061;-70
2022/04/04 03:13:46;;;;;;;295.73;269.45;;;;;;;16.95;26.21;93709.84;5023746;28;20059;-71
2022/04/04 03:16:12;;;;;;;312.85;284.15;;;;;;;16.93;26.55;93709.56;5017854;28;20053;-70
2022/04/04 03:18:38;;;;;;;291.33;265.13;;;;;;;16.93;26.33;93720.38;5023338;28;20187;-71
2022/04/04 03:21:04;;;;;;;297.42;270.98;;;;;;;16.91;26.37;93717.38;5025209;28;20095;-71
2022/04/04 03:23:32;;;;;;;293.98;267.50;;;;;;;16.92;26.23;93723.53;5017815;28;20053;-70
2022/04/04 03:25:57;;;;;;;303.00;276.42;;;;;;;16.91;26.42;93716.63;5024050;28;20041;-71
2022/04/04 03:28:23;;;;;;;296.10;269.10;;;;;;;16.92;26.17;93724.25;5021933;28;20119;-71
2022/04/04 03:30:49;;;;;;;296.70;270.45;;;;;;;16.91;26.16;93711.97;5022339;28;20033;-71
2022/04/04 03:33:15;;;;;;;289.52;263.40;;;;;;;16.91;26.36;93711.97;5023651;28;20037;-71
2022/04/04 03:35:41;;;;;;;286.98;261.25;;;;;;;16.91;26.32;93714.66;5023861;28;20167;-71
2022/04/04 03:38:10;;;;;;;290.70;264.40;;;;;;;16.91;26.16;93711.97;5025354;28;20068;-71
2022/04/04 03:40:37;;;;;;;294.23;267.73;;;;;;;16.91;26.25;93701.16;5020117;28;20680;-70
2022/04/04 03:43:03;;;;;;;306.50;279.52;;;;;;;16.92;26.25;93707.31;5028468;28;20042;-71
2022/04/04 03:45:28;;;;;;;288.60;262.58;;;;;;;16.91;26.16;93695.75;5023666;28;20072;-71
2022/04/04 03:47:55;;;;;;;301.50;274.63;;;;;;;16.89;26.22;93692.03;5025031;28;20068;-71
2022/04/04 03:50:21;;;;;;;299.55;272.95;;;;;;;16.87;26.34;93697.91;5023200;28;20103;-71
2022/04/04 03:52:51;;;;;;;301.23;274.38;;;;;;;16.89;26.33;93694.75;5024302;28;20474;-70
2022/04/04 03:55:19;;;;;;;295.13;268.92;;;;;;;16.89;26.32;93697.44;5025637;28;20093;-71
2022/04/04 03:57:45;;;;;;;302.70;275.20;;;;;;;16.87;26.26;93697.91;5023846;28;20541;-70
2022/04/04 04:00:12;;;;;;;293.70;266.63;;;;;;;16.87;26.19;93695.19;5022964;28;20133;-70
2022/04/04 04:02:37;;;;;;;287.20;261.58;;;;;;;16.88;26.21;93690.53;5017481;28;20144;-71
2022/04/04 04:05:04;;;;;;;302.27;275.27;;;;;;;16.87;26.35;93692.50;5021461;28;20041;-71
2022/04/04 04:07:30;;;;;;;295.40;269.35;;;;;;;16.88;26.21;93694.00;5032643;28;20467;-69
2022/04/04 04:09:56;;;;;;;295.95;268.98;;;;;;;16.88;26.20;93691.28;5023768;28;20107;-70
2022/04/04 04:12:22;;;;;;;297.58;271.17;;;;;;;16.89;26.28;93692.78;5028962;28;20268;-70
2022/04/04 04:14:51;;;;;;;320.30;290.42;;;;;;;16.90;26.20;93696.25;5019240;28;20040;-69
2022/04/04 04:17:24;;;;;;;296.38;269.90;;;;;;;16.90;26.36;93693.53;5025377;28;20129;-69
2022/04/04 04:22:36;;;;;;;297.95;271.70;;;;;;;16.91;26.20;93695.75;5019120;28;20045;-69
2022/04/04 04:25:03;;;;;;;299.88;272.85;;;;;;;16.92;26.19;93699.22;5025710;28;20045;-68
2022/04/04 04:27:28;;;;;;;307.70;280.85;;;;;;;16.94;26.15;93696.81;5023988;28;20056;-68
2022/04/04 04:29:54;;;;;;;292.23;266.20;;;;;;;16.94;26.36;93694.84;5023665;28;20053;-71
2022/04/04 04:32:21;;;;;;;299.50;273.33;;;;;;;16.96;26.17;93697.84;5024860;28;20055;-70
2022/04/04 04:34:50;;;;;;;321.15;292.60;;;;;;;16.97;26.23;93698.59;5014891;28;20497;-70
2022/04/04 04:37:21;;;;;;;309.88;283.00;;;;;;;17.00;26.17;93692.28;5017468;28;20046;-70
2022/04/04 04:39:47;;;;;;;291.38;265.48;;;;;;;17.01;26.22;93704.59;5012655;28;20049;-70
2022/04/04 04:42:13;;;;;;;297.42;270.55;;;;;;;17.01;26.14;93707.28;5018392;28;20056;-70
2022/04/04 04:44:38;;;;;;;296.83;270.52;;;;;;;17.02;26.32;93709.53;5024024;28;20034;-70
2022/04/04 04:47:05;;;;;;;282.58;257.45;;;;;;;17.03;26.08;93705.63;5025984;28;20071;-69
2022/04/04 04:49:32;;;;;;;274.65;250.23;;;;;;;17.06;26.11;93707.44;5021782;28;20105;-69
2022/04/04 04:51:57;;;;;;;279.00;254.38;;;;;;;17.08;25.99;93709.69;5025038;28;20056;-69
2022/04/04 04:54:23;;;;;;;290.15;264.77;;;;;;;17.09;25.99;93706.53;5018132;28;20055;-70
2022/04/04 04:56:48;;;;;;;298.95;273.02;;;;;;;17.13;26.18;93703.66;5018501;28;20052;-70
2022/04/04 04:59:14;;;;;;;316.23;289.08;;;;;;;17.16;26.11;93712.81;5023576;28;20064;-70
2022/04/04 05:01:40;;;;;;;312.55;286.02;;;;;;;17.19;25.98;93709.19;5024127;28;20091;-70
2022/04/04 05:04:06;;;;;;;311.38;284.88;;;;;;;17.22;26.10;93705.59;5019466;28;20048;-70
2022/04/04 05:06:31;;;;;;;304.33;278.52;;;;;;;17.25;25.96;93704.69;5020470;28;20244;-70
2022/04/04 05:08:59;;;;;;;318.42;291.33;;;;;;;17.27;25.82;93711.13;5023202;28;20038;-70
2022/04/04 05:11:26;;;;;;;317.00;289.92;;;;;;;17.30;25.93;93712.16;5021610;28;20045;-71
2022/04/04 05:13:51;;;;;;;319.50;292.95;;;;;;;17.30;25.80;93712.91;5022624;28;20041;-70
2022/04/04 05:16:17;;;;;;;305.02;278.58;;;;;;;17.32;25.92;93713.22;5023891;28;20053;-70
2022/04/04 05:18:44;;;;;;;317.45;290.17;;;;;;;17.34;25.75;93713.50;5022404;28;20150;-70
2022/04/04 05:21:11;;;;;;;315.65;288.75;;;;;;;17.35;25.85;93722.38;5022237;28;20044;-70
2022/04/04 05:23:38;;;;;;;300.83;274.65;;;;;;;17.37;25.78;93718.00;5031795;28;20437;-70
2022/04/04 05:26:05;;;;;;;292.60;267.05;;;;;;;17.38;25.77;93722.19;5026053;28;20129;-70
2022/04/04 05:28:32;;;;;;;309.20;283.20;;;;;;;17.40;26.16;93719.78;5018848;28;20057;-70
2022/04/04 05:30:58;;;;;;;295.38;270.02;;;;;;;17.42;25.75;93720.09;5024309;28;20619;-70
2022/04/04 05:33:23;;;;;;;299.65;273.88;;;;;;;17.43;25.69;93728.94;5027222;28;20053;-70
2022/04/04 05:35:49;;;;;;;301.00;275.25;;;;;;;17.42;25.69;93722.78;5025826;28;20045;-70
2022/04/04 05:38:15;;;;;;;296.80;271.27;;;;;;;17.44;25.48;93727.75;5025967;28;20037;-70
2022/04/04 05:40:41;;;;;;;295.23;270.23;;;;;;;17.44;25.81;93720.38;5025689;28;20055;-70
2022/04/04 05:43:07;;;;;;;305.20;279.08;;;;;;;17.46;25.70;93722.63;5025647;28;20057;-70
2022/04/04 05:45:35;;;;;;;304.38;278.58;;;;;;;17.48;25.83;93725.63;5021734;28;20735;-71
2022/04/04 05:48:02;;;;;;;308.67;282.63;;;;;;;17.50;25.80;93727.88;5025337;28;20048;-70
2022/04/04 05:50:28;;;;;;;310.23;283.75;;;;;;;17.51;25.65;93718.56;5041561;28;20048;-70
2022/04/04 05:52:54;;;;;;;315.25;288.67;;;;;;;17.51;25.60;93723.97;5022625;28;20144;-70
2022/04/04 05:55:20;;;;;;;311.85;285.70;;;;;;;17.51;25.53;93721.25;5025773;28;20696;-70
2022/04/04 05:57:46;;;;;;;312.85;286.65;;;;;;;17.55;25.59;93719.13;5025613;28;20490;-70
2022/04/04 06:00:14;;;;;;;300.55;274.70;;;;;;;17.54;25.46;93717.63;5025431;28;22913;-71
2022/04/04 06:02:41;;;;;;;303.63;277.88;;;;;;;17.54;25.29;93725.75;5022587;28;20044;-70
2022/04/04 06:05:08;;;;;;;309.75;283.67;;;;;;;17.55;25.60;93725.25;5022545;28;20165;-70
2022/04/04 06:07:37;;;;;;;315.33;289.10;;;;;;;17.55;25.62;93727.25;5026201;28;20049;-71
2022/04/04 06:10:04;;;;;;;310.77;284.75;;;;;;;17.56;25.66;93734.13;5023725;28;20057;-71
2022/04/04 06:12:30;;;;;;;299.08;272.98;;;;;;;17.55;25.51;93735.38;5031121;28;20110;-71
2022/04/04 06:14:56;;;;;;;323.35;295.83;;;;;;;17.55;25.60;93729.94;5026517;28;20054;-70
2022/04/04 06:17:22;;;;;;;298.98;273.25;;;;;;;17.54;25.34;93723.78;5026119;28;20103;-71
2022/04/04 06:19:47;;;;;;;310.13;283.90;;;;;;;17.55;25.54;93727.97;5021298;28;20038;-68
2022/04/04 06:22:13;;;;;;;335.02;307.63;;;;;;;17.57;25.41;93722.84;5023723;28;20052;-71
2022/04/04 06:24:39;;;;;;;313.50;287.13;;;;;;;17.58;25.31;93718.19;5021075;28;20040;-69
2022/04/04 06:27:04;;;;;;;311.08;284.77;;;;;;;17.61;25.34;93714.56;5024594;28;20041;-70
2022/04/04 06:29:30;;;;;;;318.80;291.73;;;;;;;17.61;25.53;93715.31;5024937;28;20042;-71
2022/04/04 06:31:56;;;;;;;322.05;295.15;;;;;;;17.62;25.51;93716.81;5026054;28;20047;-71
2022/04/04 06:34:22;;;;;;;303.20;277.17;;;;;;;17.63;25.52;93718.31;5025898;28;20069;-72
2022/04/04 06:36:48;;;;;;;307.35;281.25;;;;;;;17.62;25.46;93718.78;5024226;28;20081;-72
2022/04/04 06:39:14;;;;;;;289.13;263.88;;;;;;;17.62;25.33;93713.38;5032084;28;20501;-71
2022/04/04 06:41:41;;;;;;;310.05;283.98;;;;;;;17.62;25.50;93721.47;5024959;28;20041;-71
2022/04/04 06:44:07;;;;;;;299.05;273.52;;;;;;;17.60;25.33;93718.50;5026810;28;20040;-71
2022/04/04 06:46:36;;;;;;;303.08;276.85;;;;;;;17.59;25.20;93717.75;5028821;28;20053;-71
2022/04/04 06:49:03;;;;;;;301.58;275.63;;;;;;;17.60;25.41;93716.53;5032069;28;20513;-71
2022/04/04 06:51:28;;;;;;;291.88;266.67;;;;;;;17.59;25.14;93717.75;5029459;28;20041;-72
2022/04/04 06:53:54;;;;;;;296.55;271.13;;;;;;;17.60;25.17;93721.19;5018659;28;20042;-69
2022/04/04 06:56:22;;;;;;;294.13;268.85;;;;;;;17.60;25.25;93719.22;5021268;28;20128;-70
2022/04/04 06:58:49;;;;;;;296.48;271.08;;;;;;;17.57;25.07;93728.25;5034623;28;20596;-72
2022/04/04 07:01:17;;;;;;;290.17;265.15;;;;;;;17.59;25.21;93731.25;5029229;28;20052;-71
2022/04/04 07:03:46;;;;;;;294.63;269.20;;;;;;;17.61;25.08;93722.69;5011510;28;20061;-70
2022/04/04 07:06:16;;;;;;;298.52;273.15;;;;;;;17.61;25.24;93722.69;5027918;28;20034;-71
2022/04/04 07:08:42;;;;;;;;;;;;;;;17.60;24.94;93729.31;5027716;28;20413;-71
2022/04/04 07:11:10;;;;;;;287.17;261.90;;;;;;;17.60;25.07;93721.19;5025225;28;19921;-71
2022/04/04 07:13:40;;;;;;;293.63;267.80;;;;;;;17.56;25.08;93726.75;5022451;28;20041;-71
2022/04/04 07:16:06;;;;;;;299.83;274.35;;;;;;;17.54;25.11;93729.19;5026574;28;20125;-71
2022/04/04 07:18:32;;;;;;;291.08;266.05;;;;;;;17.53;25.14;93724.25;5031004;28;20033;-71
2022/04/04 07:20:58;;;;;;;295.42;270.20;;;;;;;17.49;25.12;93719.00;5030554;28;20122;-71
2022/04/04 07:23:24;;;;;;;296.05;270.48;;;;;;;17.49;25.16;93721.72;5027346;28;20072;-71
2022/04/04 07:25:50;;;;;;;297.73;272.42;;;;;;;17.48;25.03;93725.63;5029066;28;20042;-71
2022/04/04 07:28:15;;;;;;;301.35;275.67;;;;;;;17.48;25.17;93722.91;5024408;28;20104;-71
2022/04/04 07:30:43;;;;;;;294.65;269.30;;;;;;;17.49;25.10;93732.53;5027347;28;20136;-71
2022/04/04 07:33:15;;;;;;;290.35;265.17;;;;;;;17.49;25.24;93727.13;5028469;28;20042;-71
2022/04/04 07:35:40;;;;;;;288.98;263.85;;;;;;;17.51;25.10;93730.13;5027735;28;20049;-71
2022/04/04 07:38:06;;;;;;;287.95;262.63;;;;;;;17.51;25.50;93726.66;5028162;28;20056;-71
2022/04/04 07:40:31;;;;;;;285.02;260.13;;;;;;;17.55;25.26;93727.25;5027171;28;20048;-71
2022/04/04 07:42:57;;;;;;;286.25;261.20;;;;;;;17.53;25.10;93725.00;5026496;28;20080;-71
2022/04/04 07:45:22;;;;;;;291.17;265.85;;;;;;;17.52;25.23;93728.91;5024002;28;20050;-71
2022/04/04 07:47:49;;;;;;;288.05;262.73;;;;;;;17.52;25.15;93733.56;5021854;28;20048;-71
2022/04/04 07:50:15;;;;;;;302.60;276.60;;;;;;;17.51;25.11;93730.13;5025889;28;20187;-71
2022/04/04 07:52:41;;;;;;;295.33;270.02;;;;;;;17.50;25.33;93725.91;5028662;28;20045;-71
2022/04/04 07:55:08;;;;;;;289.17;264.02;;;;;;;17.51;25.22;93719.31;5028390;28;20120;-72
2022/04/04 07:57:34;;;;;;;288.63;263.63;;;;;;;17.50;25.41;93719.75;5028384;28;20053;-71
2022/04/04 08:00:00;;;;;;;294.10;269.20;;;;;;;17.47;25.13;93715.25;5029069;28;20045;-71
2022/04/04 08:02:25;;;;;;;289.52;264.52;;;;;;;17.46;25.31;93709.09;5026067;28;20144;-72
2022/04/04 08:04:51;;;;;;;307.27;280.33;;;;;;;17.50;25.06;93706.25;5020427;28;20049;-72
2022/04/04 08:07:19;;;;;;;293.05;267.75;;;;;;;17.52;25.15;93703.84;5029090;28;20069;-71
2022/04/04 08:09:46;;;;;;;293.13;267.65;;;;;;;17.54;25.33;93698.72;5028389;28;20045;-69
2022/04/04 08:12:12;;;;;;;292.50;266.90;;;;;;;17.52;25.22;93703.84;5027256;28;20094;-69
2022/04/04 08:14:39;;;;;;;295.95;270.27;;;;;;;17.50;25.10;93701.59;5026767;28;20045;-69
2022/04/04 08:17:05;;;;;;;288.98;263.80;;;;;;;17.48;25.24;93695.13;5027847;28;20060;-69
2022/04/04 08:19:32;;;;;;;300.90;274.73;;;;;;;17.49;25.12;93702.03;5025942;28;20046;-70
2022/04/04 08:21:58;;;;;;;296.13;270.70;;;;;;;17.46;25.21;93695.59;5021788;28;20053;-71
2022/04/04 08:24:24;;;;;;;290.92;265.67;;;;;;;17.48;25.41;93701.28;5026231;28;20497;-71
2022/04/04 08:26:50;;;;;;;291.33;266.05;;;;;;;17.48;25.30;93697.84;5026971;28;20145;-71
2022/04/04 08:29:16;;;;;;;291.08;266.05;;;;;;;17.48;25.30;93703.25;5024723;28;20036;-71
2022/04/04 08:31:41;;;;;;;310.58;283.00;;;;;;;17.50;25.41;93700.84;5023713;28;20552;-71
2022/04/04 08:34:07;;;;;;;301.55;274.90;;;;;;;17.51;25.13;93697.69;5015966;28;20440;-71
2022/04/04 08:36:33;;;;;;;285.10;260.20;;;;;;;17.52;25.15;93693.75;5023885;28;20124;-71
2022/04/04 08:38:58;;;;;;;294.10;268.60;;;;;;;17.53;25.46;93694.50;5025717;28;20041;-71
2022/04/04 08:41:29;;;;;;;302.77;276.45;;;;;;;17.53;25.27;93697.22;5024933;28;20057;-71
2022/04/04 08:43:57;;;;;;;299.42;274.27;;;;;;;17.53;25.14;93700.66;5024420;28;20103;-71
2022/04/04 08:46:23;;;;;;;305.77;279.40;;;;;;;17.53;25.35;93689.09;5025434;28;20099;-71
2022/04/04 08:48:49;;;;;;;295.95;270.33;;;;;;;17.53;25.18;93694.50;5027984;28;20463;-71
2022/04/04 08:51:16;;;;;;;303.35;277.58;;;;;;;17.53;25.21;93689.09;5024166;28;20110;-71
2022/04/04 08:53:41;;;;;;;311.85;284.73;;;;;;;17.51;25.17;93696.94;5022853;28;20410;-71
2022/04/04 08:56:11;;;;;;;299.08;273.75;;;;;;;17.50;25.16;93690.78;5021389;28;20073;-71
2022/04/04 08:58:37;;;;;;;305.63;279.88;;;;;;;17.51;25.16;93686.84;5011948;28;20412;-71
2022/04/04 09:01:03;;;;;;;292.15;266.52;;;;;;;17.51;25.11;93686.84;5009298;28;20041;-71
2022/04/04 09:03:32;;;;;;;299.55;273.55;;;;;;;17.51;25.15;93691.50;5009863;28;20517;-71
2022/04/04 09:06:03;;;;;;;289.92;264.88;;;;;;;17.52;25.18;93682.94;5011407;28;20057;-71
2022/04/04 09:08:30;;;;;;;293.20;267.83;;;;;;;17.49;24.99;93681.16;5018973;28;20103;-71
2022/04/04 09:11:00;;;;;;;298.55;272.48;;;;;;;17.51;25.09;93678.75;5026132;28;20046;-71
2022/04/04 09:13:28;;;;;;;284.05;259.15;;;;;;;17.42;24.98;93676.09;5022815;28;20592;-71
2022/04/04 09:16:01;;;;;;;290.85;265.77;;;;;;;17.37;25.18;93672.03;5029543;28;20037;-71
2022/04/04 09:18:36;;;;;;;305.70;278.85;;;;;;;17.31;25.00;93665.03;5016266;28;20046;-71
2022/04/04 09:21:11;;;;;;;294.77;269.33;;;;;;;17.21;24.89;93661.59;5027333;28;20080;-71
2022/04/04 09:23:46;;;;;;;312.13;285.33;;;;;;;17.29;25.09;93662.78;5022945;28;20041;-71
2022/04/04 09:26:32;;;;;;;292.70;267.83;;;;;;;17.30;24.97;93655.41;5016634;28;20049;-71
2022/04/04 09:29:16;;;;;;;294.85;269.35;;;;;;;17.28;24.93;93657.81;5019895;28;20037;-71
2022/04/04 09:32:05;;;;;;;294.05;267.85;;;;;;;17.27;24.81;93646.25;5020845;28;20037;-71
2022/04/04 09:35:01;;;;;;;295.08;269.27;;;;;;;17.31;24.86;93646.84;5023766;28;20143;-71
2022/04/04 09:37:32;;;;;;;287.88;262.95;;;;;;;17.37;25.15;93641.56;5024714;28;20132;-71
2022/04/04 09:40:15;;;;;;;287.05;261.85;;;;;;;17.34;24.89;93645.94;5024570;28;20037;-71
2022/04/04 09:43:02;;;;;;;285.02;260.50;;;;;;;17.34;24.79;93639.78;5015649;28;20061;-70
2022/04/04 09:45:30;;;;;;;284.98;260.08;;;;;;;17.32;24.84;93640.25;5023771;28;20057;-70
2022/04/04 09:48:04;;;;;;;302.13;275.23;;;;;;;17.32;25.03;93636.78;5015288;28;20058;-70
2022/04/04 09:50:32;;;;;;;283.58;258.50;;;;;;;17.34;25.08;93635.13;5013129;28;20048;-70
2022/04/04 09:53:03;;;;;;;302.75;276.00;;;;;;;17.33;24.90;93627.47;5023723;28;20049;-72
2022/04/04 09:55:29;;;;;;;280.77;256.13;;;;;;;17.31;25.13;93627.19;5024048;28;20037;-72
2022/04/04 09:57:57;;;;;;;280.35;255.55;;;;;;;17.30;25.09;93621.03;5024015;28;20122;-72
2022/04/04 10:00:24;;;;;;;290.52;265.20;;;;;;;17.31;25.23;93619.81;5018798;28;20053;-70
2022/04/04 10:02:51;;;;;;;299.40;273.15;;;;;;;17.31;25.20;93619.81;5015142;28;20136;-71
2022/04/04 10:05:18;;;;;;;289.70;264.40;;;;;;;17.32;25.16;93618.63;5024873;28;20477;-70
2022/04/04 10:07:44;;;;;;;286.25;261.33;;;;;;;17.30;24.99;93615.63;5023831;28;20048;-71
2022/04/04 10:10:10;;;;;;;287.70;262.70;;;;;;;17.32;25.03;93607.81;5033279;28;20135;-71
2022/04/04 10:12:40;;;;;;;298.40;271.60;;;;;;;17.26;24.99;93608.88;5021614;28;20049;-70
2022/04/04 10:15:07;;;;;;;285.67;260.83;;;;;;;17.21;25.10;93598.69;5021301;28;20522;-71
2022/04/04 10:17:33;;;;;;;283.90;259.02;;;;;;;17.22;25.17;93602.91;5024852;28;20741;-70
2022/04/04 10:19:59;;;;;;;283.67;258.83;;;;;;;17.22;25.13;93595.53;5025039;28;20069;-71
2022/04/04 10:22:26;;;;;;;295.83;269.52;;;;;;;17.20;25.07;93600.66;5024486;28;22168;-70
2022/04/04 10:24:52;;;;;;;308.20;281.05;;;;;;;17.18;25.12;93594.97;5028132;28;20049;-71
2022/04/04 10:27:20;;;;;;;291.52;266.30;;;;;;;17.15;25.25;93593.19;5029211;28;20060;-71
2022/04/04 10:29:47;;;;;;;291.35;265.98;;;;;;;17.17;25.17;93582.66;5030573;28;20375;-70
2022/04/04 10:32:28;;;;;;;283.27;258.30;;;;;;;17.16;25.19;93583.88;5030015;28;20597;-70
2022/04/04 10:34:55;;;;;;;289.70;263.65;;;;;;;17.18;25.22;93588.81;5022488;28;20048;-70
2022/04/04 10:37:26;;;;;;;279.50;254.38;;;;;;;17.16;25.06;93581.16;5032056;28;20116;-70
2022/04/04 10:39:52;;;;;;;284.88;259.58;;;;;;;17.16;25.15;93575.00;5038840;28;20041;-70
2022/04/04 10:42:31;;;;;;;289.55;264.30;;;;;;;17.13;25.21;93574.72;5029578;28;20041;-71
2022/04/04 10:45:03;;;;;;;296.80;270.17;;;;;;;17.13;25.20;93571.25;5033768;28;20041;-70
2022/04/04 10:47:30;;;;;;;285.50;260.48;;;;;;;17.15;25.28;93568.09;5030451;28;20383;-70
2022/04/04 10:50:17;;;;;;;283.58;258.48;;;;;;;17.17;25.26;93573.81;5029581;28;20060;-70
2022/04/04 10:52:43;;;;;;;280.00;255.07;;;;;;;17.17;25.34;93566.44;5028466;28;20053;-70
2022/04/04 10:55:28;;;;;;;282.67;257.60;;;;;;;17.18;25.18;93561.78;5025055;28;20053;-70
2022/04/04 10:58:09;;;;;;;285.02;259.65;;;;;;;17.18;25.19;93548.28;5010744;28;20042;-70
2022/04/04 11:00:53;;;;;;;282.58;257.20;;;;;;;17.15;25.23;93547.25;5019999;28;20147;-70
2022/04/04 11:03:39;;;;;;;283.35;258.00;;;;;;;17.15;24.96;93544.53;5026255;28;20057;-71
2022/04/04 11:08:59;;;;;;;284.08;258.58;;;;;;;17.26;25.32;93542.06;5024382;28;20049;-70
2022/04/04 11:11:56;;;;;;;282.65;257.55;;;;;;;17.27;25.15;93530.06;5019615;28;20180;-71
2022/04/04 11:14:28;;;;;;;286.67;261.38;;;;;;;17.27;25.36;93526.59;5044460;28;20398;-70